Time;durP1;ratioP1;P1;durP2;ratioP2;P2;SDS_P1;SDS_P2;PMS_P1;PMS_P2;Temp;Humidity;BMP_temperature;BMP_pressure;BME280_temperature;BME280_humidity;BME280_pressure;Samples;Min_cycle;Max_cycle;Signal;HPM_P1;HPM_P2
2023/09/08 00:02:16;;;;;;;21.23;16.33;;;;;;;;;;5001649;28;25070;-72
2023/09/08 00:04:42;;;;;;;20.83;16.38;;;;;;;;;;4996420;28;25076;-71
2023/09/08 00:07:08;;;;;;;19.88;15.88;;;;;;;;;;4997013;28;25128;-72
2023/09/08 00:09:34;;;;;;;19.63;16.48;;;;;;;;;;4992539;28;25066;-74
2023/09/08 00:12:01;;;;;;;22.38;15.98;;;;;;;;;;4988981;28;25086;-72
2023/09/08 00:14:27;;;;;;;20.02;16.27;;;;;;;;;;4991310;28;25054;-72
2023/09/08 00:16:56;;;;;;;20.63;16.08;;;;;;;;;;4993496;28;25078;-72
2023/09/08 00:19:22;;;;;;;19.35;14.93;;;;;;;;;;4993878;28;25052;-73
2023/09/08 00:21:49;;;;;;;22.50;16.02;;;;;;;;;;4993661;28;25071;-71
2023/09/08 00:24:15;;;;;;;22.98;17.13;;;;;;;;;;4990712;28;25065;-74
2023/09/08 00:26:41;;;;;;;20.85;16.23;;;;;;;;;;4998717;28;25145;-71
2023/09/08 00:29:07;;;;;;;21.45;16.80;;;;;;;;;;4993809;28;25160;-73
2023/09/08 00:31:33;;;;;;;31.55;16.63;;;;;;;;;;4989172;28;25062;-73
2023/09/08 00:33:59;;;;;;;22.05;16.20;;;;;;;;;;4998564;28;25071;-73
2023/09/08 00:36:25;;;;;;;23.00;16.48;;;;;;;;;;4987331;28;25064;-71
2023/09/08 00:38:51;;;;;;;20.25;17.10;;;;;;;;;;4992331;28;25094;-71
2023/09/08 00:41:17;;;;;;;22.33;16.50;;;;;;;;;;4995121;28;25151;-73
2023/09/08 00:43:43;;;;;;;20.83;16.67;;;;;;;;;;5006643;28;25072;-72
2023/09/08 00:46:09;;;;;;;19.17;16.10;;;;;;;;;;4988780;28;25064;-71
2023/09/08 00:48:37;;;;;;;21.23;16.05;;;;;;;;;;4987801;28;25078;-71
2023/09/08 00:51:05;;;;;;;21.08;16.58;;;;;;;;;;4993199;28;25077;-71
2023/09/08 00:53:31;;;;;;;22.35;16.02;;;;;;;;;;4994661;28;25043;-73
2023/09/08 00:55:57;;;;;;;17.38;14.95;;;;;;;;;;4991388;28;25063;-73
2023/09/08 00:58:23;;;;;;;22.33;16.65;;;;;;;;;;4991225;28;25063;-71
2023/09/08 01:00:49;;;;;;;24.50;16.15;;;;;;;;;;4997583;28;25068;-72
2023/09/08 01:03:15;;;;;;;21.20;16.35;;;;;;;;;;4996959;28;25108;-71
2023/09/08 01:05:41;;;;;;;19.45;15.43;;;;;;;;;;4993833;28;25060;-73
2023/09/08 01:08:08;;;;;;;19.70;15.75;;;;;;;;;;4988533;28;25067;-72
2023/09/08 01:10:36;;;;;;;23.08;15.65;;;;;;;;;;4983610;28;25092;-72
2023/09/08 01:13:03;;;;;;;23.00;15.70;;;;;;;;;;4991001;28;25058;-74
2023/09/08 01:15:29;;;;;;;22.00;16.85;;;;;;;;;;4993052;28;25093;-73
2023/09/08 01:17:55;;;;;;;20.88;15.88;;;;;;;;;;4993724;28;25086;-74
2023/09/08 01:20:49;;;;;;;23.45;15.32;;;;;;;;;;4994690;28;25062;-71
2023/09/08 01:23:21;;;;;;;22.00;16.08;;;;;;;;;;4994559;28;25064;-72
2023/09/08 01:25:53;;;;;;;22.92;16.02;;;;;;;;;;4991954;28;25056;-73
2023/09/08 01:28:20;;;;;;;21.27;16.35;;;;;;;;;;4987778;28;25048;-73
2023/09/08 01:30:46;;;;;;;22.58;16.17;;;;;;;;;;5000044;28;25091;-76
2023/09/08 01:33:12;;;;;;;21.98;16.27;;;;;;;;;;4996115;28;25083;-74
2023/09/08 01:35:38;;;;;;;21.23;16.08;;;;;;;;;;4993176;28;25069;-70
2023/09/08 01:38:04;;;;;;;19.83;16.13;;;;;;;;;;4990133;28;25115;-74
2023/09/08 01:40:30;;;;;;;20.23;16.48;;;;;;;;;;4994107;28;25081;-73
2023/09/08 01:42:56;;;;;;;21.90;15.70;;;;;;;;;;4991073;28;25147;-71
2023/09/08 01:45:22;;;;;;;18.83;15.63;;;;;;;;;;4996880;28;25058;-73
2023/09/08 01:47:48;;;;;;;23.23;16.02;;;;;;;;;;4992820;28;25068;-72
2023/09/08 01:50:15;;;;;;;22.30;17.08;;;;;;;;;;4970128;28;25080;-74
2023/09/08 01:52:41;;;;;;;20.27;16.15;;;;;;;;;;4965521;28;25096;-72
2023/09/08 01:55:07;;;;;;;24.80;16.00;;;;;;;;;;4976327;28;25082;-73
2023/09/08 01:57:33;;;;;;;20.15;16.33;;;;;;;;;;4998637;28;25066;-73
2023/09/08 01:59:59;;;;;;;20.70;17.67;;;;;;;;;;5006592;28;25093;-72
2023/09/08 02:02:25;;;;;;;24.70;16.70;;;;;;;;;;5000946;28;25115;-73
2023/09/08 02:04:51;;;;;;;18.85;16.27;;;;;;;;;;5010303;28;25166;-74
2023/09/08 02:07:17;;;;;;;20.42;16.67;;;;;;;;;;4999359;28;25068;-73
2023/09/08 02:09:44;;;;;;;20.60;16.23;;;;;;;;;;5007621;28;25074;-74
2023/09/08 02:12:10;;;;;;;22.35;17.45;;;;;;;;;;5004832;28;25071;-73
2023/09/08 02:14:36;;;;;;;26.45;17.63;;;;;;;;;;5004106;28;25163;-73
2023/09/08 02:17:02;;;;;;;21.50;16.65;;;;;;;;;;5005028;28;25091;-72
2023/09/08 02:19:28;;;;;;;22.63;17.30;;;;;;;;;;5004048;28;25067;-72
2023/09/08 02:21:54;;;;;;;19.73;16.42;;;;;;;;;;5012588;28;25075;-73
2023/09/08 02:24:20;;;;;;;22.58;17.02;;;;;;;;;;5003356;28;25130;-72
2023/09/08 02:26:46;;;;;;;23.38;16.63;;;;;;;;;;4994945;28;25091;-73
2023/09/08 02:29:12;;;;;;;22.60;16.92;;;;;;;;;;5001040;28;25055;-74
2023/09/08 02:31:38;;;;;;;27.40;16.48;;;;;;;;;;4992897;28;25066;-72
2023/09/08 02:34:04;;;;;;;22.67;15.63;;;;;;;;;;4996796;28;25108;-73
2023/09/08 02:36:30;;;;;;;19.52;15.68;;;;;;;;;;4998838;28;25065;-72
2023/09/08 02:38:56;;;;;;;19.98;15.88;;;;;;;;;;4997112;28;25066;-73
2023/09/08 02:41:23;;;;;;;21.48;15.98;;;;;;;;;;4995942;28;25061;-73
2023/09/08 02:43:49;;;;;;;24.88;16.55;;;;;;;;;;4998239;28;25129;-75
2023/09/08 02:46:15;;;;;;;21.17;15.35;;;;;;;;;;5003328;28;25113;-74
2023/09/08 02:48:41;;;;;;;19.45;15.88;;;;;;;;;;5009555;28;25078;-74
2023/09/08 02:51:07;;;;;;;24.35;15.45;;;;;;;;;;5003868;28;25064;-72
2023/09/08 02:53:33;;;;;;;20.10;14.85;;;;;;;;;;5000350;28;25056;-71
2023/09/08 02:56:00;;;;;;;19.63;15.48;;;;;;;;;;4995523;28;25167;-73
2023/09/08 02:58:26;;;;;;;20.15;15.45;;;;;;;;;;4995128;28;25076;-73
2023/09/08 03:00:53;;;;;;;18.08;15.00;;;;;;;;;;4998157;28;25086;-73
2023/09/08 03:03:21;;;;;;;19.05;15.07;;;;;;;;;;4991943;28;25103;-74
2023/09/08 03:05:47;;;;;;;19.65;15.57;;;;;;;;;;4998759;28;25079;-73
2023/09/08 03:08:13;;;;;;;20.73;16.17;;;;;;;;;;4993458;28;25084;-76
2023/09/08 03:10:40;;;;;;;19.42;15.02;;;;;;;;;;4995013;28;25080;-74
2023/09/08 03:13:06;;;;;;;23.20;15.57;;;;;;;;;;4993591;28;25122;-72
2023/09/08 03:15:34;;;;;;;16.90;13.82;;;;;;;;;;4985108;28;25098;-73
2023/09/08 03:18:00;;;;;;;21.25;15.93;;;;;;;;;;4989926;28;25096;-73
2023/09/08 03:20:27;;;;;;;19.45;15.98;;;;;;;;;;4994178;28;25100;-72
2023/09/08 03:22:53;;;;;;;17.25;14.80;;;;;;;;;;4996732;28;25133;-72
2023/09/08 03:25:19;;;;;;;19.77;14.63;;;;;;;;;;4996953;28;25071;-74
2023/09/08 03:27:45;;;;;;;18.55;15.05;;;;;;;;;;4993551;28;25084;-78
2023/09/08 03:30:11;;;;;;;17.42;14.95;;;;;;;;;;4997206;28;25051;-73
2023/09/08 03:32:37;;;;;;;23.70;15.52;;;;;;;;;;4992810;28;25056;-72
2023/09/08 03:35:06;;;;;;;22.58;15.38;;;;;;;;;;4996546;28;25138;-74
2023/09/08 03:37:32;;;;;;;18.70;15.07;;;;;;;;;;4995741;28;25051;-72
2023/09/08 03:39:58;;;;;;;18.63;15.43;;;;;;;;;;5005194;28;25118;-74
2023/09/08 03:42:24;;;;;;;20.55;15.90;;;;;;;;;;5002898;28;25056;-73
2023/09/08 03:44:50;;;;;;;20.00;15.48;;;;;;;;;;5003741;28;25073;-72
2023/09/08 03:47:16;;;;;;;18.90;15.27;;;;;;;;;;4997565;28;25373;-76
2023/09/08 03:49:42;;;;;;;18.77;14.48;;;;;;;;;;5001259;28;25140;-73
2023/09/08 03:52:08;;;;;;;22.17;15.93;;;;;;;;;;4998174;28;25081;-72
2023/09/08 03:54:34;;;;;;;18.10;15.65;;;;;;;;;;4997859;28;25077;-72
2023/09/08 03:57:00;;;;;;;20.13;15.80;;;;;;;;;;4986538;28;25073;-74
2023/09/08 03:59:26;;;;;;;23.65;15.90;;;;;;;;;;4992919;28;25101;-71
2023/09/08 04:01:52;;;;;;;20.42;15.00;;;;;;;;;;4992176;28;25055;-75
2023/09/08 04:04:19;;;;;;;23.60;15.70;;;;;;;;;;4989806;28;25076;-74
2023/09/08 04:06:45;;;;;;;19.55;14.63;;;;;;;;;;5001768;28;25054;-74
2023/09/08 04:09:11;;;;;;;18.65;15.88;;;;;;;;;;4999095;28;25101;-73
2023/09/08 04:11:37;;;;;;;19.50;15.55;;;;;;;;;;4994775;28;25083;-71
2023/09/08 04:14:03;;;;;;;21.45;16.63;;;;;;;;;;4993493;28;25095;-74
2023/09/08 04:16:29;;;;;;;19.15;16.15;;;;;;;;;;4992372;28;25100;-71
2023/09/08 04:18:55;;;;;;;18.42;16.00;;;;;;;;;;4999479;28;25088;-72
2023/09/08 04:21:22;;;;;;;20.60;16.73;;;;;;;;;;4997484;28;25072;-73
2023/09/08 04:23:48;;;;;;;19.35;15.85;;;;;;;;;;4998794;28;25061;-73
2023/09/08 04:26:14;;;;;;;19.83;15.13;;;;;;;;;;4995023;28;25067;-74
2023/09/08 04:28:41;;;;;;;26.60;16.17;;;;;;;;;;5000205;28;25156;-73
2023/09/08 04:31:07;;;;;;;20.10;15.75;;;;;;;;;;4993842;28;25103;-75
2023/09/08 04:33:33;;;;;;;18.73;15.38;;;;;;;;;;4996511;28;25084;-73
2023/09/08 04:35:59;;;;;;;19.40;15.45;;;;;;;;;;5009071;28;25051;-74
2023/09/08 04:38:25;;;;;;;20.52;15.07;;;;;;;;;;4996782;28;25063;-73
2023/09/08 04:40:52;;;;;;;19.77;16.02;;;;;;;;;;4994072;28;25069;-72
2023/09/08 04:43:18;;;;;;;21.90;16.48;;;;;;;;;;4995282;28;25073;-75
2023/09/08 04:45:44;;;;;;;22.13;15.77;;;;;;;;;;4999845;28;25071;-75
2023/09/08 04:48:10;;;;;;;24.33;14.65;;;;;;;;;;4995904;28;25142;-74
2023/09/08 04:50:36;;;;;;;20.55;14.73;;;;;;;;;;4996527;28;25063;-71
2023/09/08 04:53:02;;;;;;;21.17;15.15;;;;;;;;;;4999718;28;25143;-72
2023/09/08 04:55:29;;;;;;;24.13;16.60;;;;;;;;;;4999658;28;25069;-74
2023/09/08 04:57:55;;;;;;;22.67;16.02;;;;;;;;;;4992198;28;25139;-69
2023/09/08 05:00:21;;;;;;;22.27;15.63;;;;;;;;;;5000425;28;25133;-73
2023/09/08 05:02:47;;;;;;;23.40;16.08;;;;;;;;;;4994352;28;25058;-73
2023/09/08 05:05:13;;;;;;;21.05;16.25;;;;;;;;;;4994323;28;25067;-75
2023/09/08 05:07:39;;;;;;;22.33;16.17;;;;;;;;;;4989407;28;25093;-74
2023/09/08 05:10:06;;;;;;;19.00;15.55;;;;;;;;;;4992864;28;25131;-72
2023/09/08 05:12:32;;;;;;;19.25;15.95;;;;;;;;;;4990021;28;25108;-72
2023/09/08 05:15:05;;;;;;;20.17;15.68;;;;;;;;;;4995683;28;25025;-74
2023/09/08 05:17:31;;;;;;;21.58;15.15;;;;;;;;;;4988005;28;25076;-74
2023/09/08 05:19:57;;;;;;;23.02;17.25;;;;;;;;;;4991102;28;25151;-72
2023/09/08 05:22:23;;;;;;;22.27;16.23;;;;;;;;;;4999573;28;25046;-73
2023/09/08 05:24:49;;;;;;;21.95;16.88;;;;;;;;;;4999959;28;25065;-73
2023/09/08 05:27:15;;;;;;;20.23;16.35;;;;;;;;;;4996207;28;25074;-73
2023/09/08 05:29:41;;;;;;;21.08;16.20;;;;;;;;;;4996993;28;25101;-73
2023/09/08 05:32:07;;;;;;;19.55;15.60;;;;;;;;;;4997933;28;25084;-74
2023/09/08 05:34:33;;;;;;;21.45;16.50;;;;;;;;;;5003709;28;25065;-73
2023/09/08 05:36:59;;;;;;;22.70;16.35;;;;;;;;;;5002733;28;25079;-72
2023/09/08 05:39:25;;;;;;;22.48;16.67;;;;;;;;;;5001066;28;25096;-73
2023/09/08 05:41:51;;;;;;;21.13;16.60;;;;;;;;;;5002507;28;25069;-71
2023/09/08 05:44:17;;;;;;;22.42;15.77;;;;;;;;;;4998549;28;25068;-73
2023/09/08 05:46:43;;;;;;;24.40;16.30;;;;;;;;;;4993325;28;25076;-73
2023/09/08 05:49:09;;;;;;;19.30;16.30;;;;;;;;;;4996723;28;25070;-74
2023/09/08 05:51:35;;;;;;;20.17;15.90;;;;;;;;;;4998786;28;25051;-74
2023/09/08 05:54:01;;;;;;;27.00;16.63;;;;;;;;;;4994204;28;25085;-73
2023/09/08 05:56:31;;;;;;;25.75;17.42;;;;;;;;;;4993814;28;25043;-75
2023/09/08 05:58:57;;;;;;;20.83;16.25;;;;;;;;;;5000117;28;25062;-72
2023/09/08 06:01:24;;;;;;;24.38;17.13;;;;;;;;;;4997216;28;25080;-74
2023/09/08 06:03:50;;;;;;;23.15;16.83;;;;;;;;;;4995079;28;25092;-72
2023/09/08 06:06:16;;;;;;;20.75;16.35;;;;;;;;;;4995742;28;25096;-73
2023/09/08 06:08:41;;;;;;;21.42;16.50;;;;;;;;;;5000594;28;25102;-73
2023/09/08 06:11:07;;;;;;;21.83;16.50;;;;;;;;;;4996830;28;25133;-73
2023/09/08 06:13:34;;;;;;;19.10;16.13;;;;;;;;;;4996534;28;25102;-75
2023/09/08 06:15:59;;;;;;;20.30;15.25;;;;;;;;;;4997873;28;25083;-74
2023/09/08 06:18:30;;;;;;;18.45;14.63;;;;;;;;;;5005697;28;25072;-72
2023/09/08 06:20:56;;;;;;;21.95;15.77;;;;;;;;;;5001550;28;25118;-72
2023/09/08 06:23:22;;;;;;;19.75;15.95;;;;;;;;;;5011602;28;25084;-71
2023/09/08 06:25:49;;;;;;;20.10;16.80;;;;;;;;;;5000277;28;25065;-73
2023/09/08 06:28:15;;;;;;;19.15;14.70;;;;;;;;;;5012347;28;25104;-76
2023/09/08 06:30:41;;;;;;;23.08;16.27;;;;;;;;;;5005334;28;25094;-73
2023/09/08 06:33:08;;;;;;;21.17;17.02;;;;;;;;;;4993615;28;25057;-71
2023/09/08 06:35:34;;;;;;;20.55;15.98;;;;;;;;;;5010802;28;25058;-73
2023/09/08 06:38:00;;;;;;;19.75;15.50;;;;;;;;;;5007016;28;25053;-74
2023/09/08 06:40:26;;;;;;;20.33;16.35;;;;;;;;;;5001796;28;25079;-72
2023/09/08 06:42:52;;;;;;;19.80;15.07;;;;;;;;;;4999202;28;25061;-73
2023/09/08 06:45:18;;;;;;;26.08;17.27;;;;;;;;;;4997834;28;25065;-75
2023/09/08 06:47:45;;;;;;;20.80;16.92;;;;;;;;;;4990178;28;25087;-72
2023/09/08 06:50:11;;;;;;;20.40;16.42;;;;;;;;;;5005892;28;25115;-73
2023/09/08 06:52:37;;;;;;;19.48;16.55;;;;;;;;;;5004364;28;25056;-74
2023/09/08 06:55:03;;;;;;;26.33;17.13;;;;;;;;;;5020207;28;25061;-73
2023/09/08 06:57:29;;;;;;;20.05;16.33;;;;;;;;;;5006741;28;25080;-73
2023/09/08 06:59:55;;;;;;;20.50;16.83;;;;;;;;;;5005166;28;25087;-73
2023/09/08 07:02:21;;;;;;;22.63;17.73;;;;;;;;;;5010539;28;25098;-73
2023/09/08 07:04:47;;;;;;;23.23;17.42;;;;;;;;;;4986110;28;25080;-70
2023/09/08 07:07:12;;;;;;;20.10;16.98;;;;;;;;;;4993561;28;25084;-72
2023/09/08 07:09:38;;;;;;;20.35;15.60;;;;;;;;;;5000415;28;25055;-71
2023/09/08 07:12:06;;;;;;;28.17;18.33;;;;;;;;;;4995557;28;25071;-73
2023/09/08 07:14:32;;;;;;;20.48;17.40;;;;;;;;;;4991160;28;25091;-73
2023/09/08 07:16:58;;;;;;;21.05;15.80;;;;;;;;;;4984020;28;25065;-71
2023/09/08 07:19:26;;;;;;;20.38;16.98;;;;;;;;;;4994468;28;25096;-75
2023/09/08 07:21:52;;;;;;;23.50;16.33;;;;;;;;;;4987504;28;25067;-71
2023/09/08 07:24:18;;;;;;;27.38;16.95;;;;;;;;;;4989911;28;25065;-71
2023/09/08 07:26:44;;;;;;;22.77;16.67;;;;;;;;;;4988414;28;25048;-73
2023/09/08 07:29:10;;;;;;;22.02;17.95;;;;;;;;;;4988434;28;25056;-71
2023/09/08 07:31:36;;;;;;;20.25;16.67;;;;;;;;;;4987386;28;25074;-72
2023/09/08 07:34:02;;;;;;;20.95;17.75;;;;;;;;;;4986156;28;25066;-73
2023/09/08 07:36:28;;;;;;;22.63;17.23;;;;;;;;;;4992871;28;25061;-71
2023/09/08 07:38:54;;;;;;;19.70;16.17;;;;;;;;;;4981198;28;25062;-71
2023/09/08 07:41:20;;;;;;;22.30;16.60;;;;;;;;;;4991259;28;25097;-73
2023/09/08 07:43:46;;;;;;;22.88;17.10;;;;;;;;;;4997506;28;25069;-74
2023/09/08 07:46:12;;;;;;;21.55;16.90;;;;;;;;;;4991790;28;25117;-72
2023/09/08 07:48:38;;;;;;;23.35;17.33;;;;;;;;;;4993033;28;25071;-71
2023/09/08 07:51:04;;;;;;;28.73;18.75;;;;;;;;;;4992802;28;25049;-74
2023/09/08 07:53:30;;;;;;;20.88;16.27;;;;;;;;;;4994394;28;25059;-72
2023/09/08 07:55:56;;;;;;;28.35;18.60;;;;;;;;;;4992907;28;25105;-72
2023/09/08 07:58:23;;;;;;;26.80;18.52;;;;;;;;;;4992688;28;25074;-71
2023/09/08 08:00:49;;;;;;;23.88;18.08;;;;;;;;;;4998113;28;25062;-74
2023/09/08 08:03:14;;;;;;;21.73;17.83;;;;;;;;;;4992509;28;25066;-75
2023/09/08 08:05:40;;;;;;;24.63;19.10;;;;;;;;;;4991970;28;25069;-73
2023/09/08 08:08:09;;;;;;;22.80;17.52;;;;;;;;;;4989042;28;25084;-73
2023/09/08 08:10:34;;;;;;;23.67;17.63;;;;;;;;;;5005074;28;25061;-74
2023/09/08 08:13:00;;;;;;;24.60;18.58;;;;;;;;;;4981726;28;25091;-70
2023/09/08 08:15:37;;;;;;;28.58;18.55;;;;;;;;;;4984830;28;25092;-71
2023/09/08 08:18:04;;;;;;;21.27;17.65;;;;;;;;;;4991686;28;25084;-73
2023/09/08 08:20:34;;;;;;;28.40;19.60;;;;;;;;;;4993473;28;25082;-72
2023/09/08 08:23:00;;;;;;;23.10;18.83;;;;;;;;;;4991781;28;25047;-73
2023/09/08 08:25:26;;;;;;;25.83;19.63;;;;;;;;;;4991771;28;25135;-77
2023/09/08 08:27:52;;;;;;;26.52;18.02;;;;;;;;;;4990042;28;25132;-73
2023/09/08 08:30:18;;;;;;;23.42;15.27;;;;;;;;;;4989704;28;25075;-74
2023/09/08 08:32:44;;;;;;;20.45;17.27;;;;;;;;;;4991472;28;25073;-73
2023/09/08 08:35:10;;;;;;;22.65;18.65;;;;;;;;;;4984609;28;25098;-73
2023/09/08 08:37:36;;;;;;;23.67;19.80;;;;;;;;;;4988356;28;25147;-72
2023/09/08 08:40:03;;;;;;;27.92;18.63;;;;;;;;;;4990632;28;25160;-72
2023/09/08 08:42:32;;;;;;;23.52;18.40;;;;;;;;;;4991100;28;25062;-72
2023/09/08 08:44:59;;;;;;;22.60;16.83;;;;;;;;;;4984484;28;25100;-75
2023/09/08 08:47:26;;;;;;;20.10;16.50;;;;;;;;;;4995882;28;25145;-72
2023/09/08 08:49:53;;;;;;;20.02;17.42;;;;;;;;;;4987485;28;25044;-71
2023/09/08 08:52:20;;;;;;;23.23;16.55;;;;;;;;;;4989242;28;25102;-72
2023/09/08 08:54:46;;;;;;;18.90;15.32;;;;;;;;;;4985659;28;25050;-73
2023/09/08 08:57:13;;;;;;;23.85;15.82;;;;;;;;;;4985419;28;24948;-72
2023/09/08 08:59:41;;;;;;;21.55;17.08;;;;;;;;;;4986740;28;25095;-72
2023/09/08 09:02:08;;;;;;;23.20;15.50;;;;;;;;;;4987763;28;25072;-71
2023/09/08 09:04:34;;;;;;;22.38;15.43;;;;;;;;;;4989089;28;25053;-70
2023/09/08 09:07:00;;;;;;;19.40;15.05;;;;;;;;;;4985208;28;25101;-72
2023/09/08 09:09:26;;;;;;;17.75;15.07;;;;;;;;;;4990849;28;25150;-73
2023/09/08 09:11:52;;;;;;;18.30;14.73;;;;;;;;;;4985073;28;25156;-70
2023/09/08 09:14:18;;;;;;;17.25;14.73;;;;;;;;;;4990871;28;25128;-72
2023/09/08 09:16:44;;;;;;;20.73;14.85;;;;;;;;;;4985141;28;25069;-75
2023/09/08 09:19:18;;;;;;;21.13;16.27;;;;;;;;;;4990779;28;25177;-73
2023/09/08 09:21:46;;;;;;;22.13;15.07;;;;;;;;;;4987807;28;25064;-73
2023/09/08 09:24:28;;;;;;;20.63;16.27;;;;;;;;;;4980722;28;25082;-72
2023/09/08 09:26:54;;;;;;;16.40;14.70;;;;;;;;;;4989888;28;25052;-72
2023/09/08 09:29:20;;;;;;;20.92;14.52;;;;;;;;;;5010046;28;25078;-73
2023/09/08 09:31:57;;;;;;;22.42;14.93;;;;;;;;;;5005924;28;25080;-72
2023/09/08 09:34:23;;;;;;;18.95;15.20;;;;;;;;;;5007688;28;25068;-71
2023/09/08 09:36:50;;;;;;;21.23;14.77;;;;;;;;;;4997677;28;25062;-73
2023/09/08 09:39:18;;;;;;;19.85;14.38;;;;;;;;;;4996056;28;25058;-72
2023/09/08 09:41:44;;;;;;;18.77;14.45;;;;;;;;;;4990031;28;25076;-72
2023/09/08 09:44:11;;;;;;;22.30;15.05;;;;;;;;;;4990866;28;25071;-71
2023/09/08 09:46:37;;;;;;;19.48;13.95;;;;;;;;;;4993201;28;25079;-73
2023/09/08 09:49:03;;;;;;;16.65;14.85;;;;;;;;;;4990609;28;25071;-70
2023/09/08 09:51:30;;;;;;;15.45;13.32;;;;;;;;;;4988968;28;25146;-73
2023/09/08 09:53:58;;;;;;;20.15;15.55;;;;;;;;;;5001331;28;25072;-72
2023/09/08 09:56:24;;;;;;;19.65;15.50;;;;;;;;;;5013975;28;25128;-72
2023/09/08 09:58:53;;;;;;;23.67;14.10;;;;;;;;;;5009066;28;25052;-73
2023/09/08 10:01:20;;;;;;;18.38;15.38;;;;;;;;;;4994778;28;25135;-72
2023/09/08 10:03:46;;;;;;;19.75;15.75;;;;;;;;;;4985242;28;25099;-74
2023/09/08 10:06:13;;;;;;;18.38;13.77;;;;;;;;;;4991789;28;25104;-70
2023/09/08 10:08:39;;;;;;;21.17;14.10;;;;;;;;;;4986543;28;25069;-72
2023/09/08 10:11:06;;;;;;;18.55;14.38;;;;;;;;;;4972365;28;25075;-70
2023/09/08 10:13:37;;;;;;;18.67;15.25;;;;;;;;;;4988416;28;25075;-73
2023/09/08 10:16:04;;;;;;;22.25;14.93;;;;;;;;;;4991335;28;25134;-72
2023/09/08 10:18:31;;;;;;;16.80;13.52;;;;;;;;;;4980435;28;25141;-71
2023/09/08 10:20:58;;;;;;;18.65;13.57;;;;;;;;;;4989486;28;25101;-72
2023/09/08 10:23:30;;;;;;;15.00;12.32;;;;;;;;;;4989929;28;25113;-70
2023/09/08 10:25:59;;;;;;;18.65;13.98;;;;;;;;;;4987914;28;25070;-71
2023/09/08 10:28:26;;;;;;;17.58;13.30;;;;;;;;;;4998292;28;25055;-71
2023/09/08 10:30:52;;;;;;;17.42;14.23;;;;;;;;;;4987408;28;25071;-74
2023/09/08 10:33:18;;;;;;;18.05;14.60;;;;;;;;;;4978060;28;25076;-74
2023/09/08 10:35:44;;;;;;;19.73;13.77;;;;;;;;;;4985663;28;25077;-73
2023/09/08 10:38:26;;;;;;;16.33;13.82;;;;;;;;;;4988070;28;25072;-71
2023/09/08 10:41:12;;;;;;;17.75;14.05;;;;;;;;;;4992166;28;25060;-73
2023/09/08 10:43:38;;;;;;;19.60;11.85;;;;;;;;;;4969307;28;25096;-73
2023/09/08 10:46:09;;;;;;;16.17;10.82;;;;;;;;;;4989631;28;25098;-73
2023/09/08 10:48:45;;;;;;;13.87;9.43;;;;;;;;;;4983933;28;25164;-71
2023/09/08 10:51:14;;;;;;;15.02;11.07;;;;;;;;;;4989045;28;25145;-73
2023/09/08 10:53:40;;;;;;;13.18;11.60;;;;;;;;;;4988255;28;25069;-72
2023/09/08 10:56:06;;;;;;;12.43;10.63;;;;;;;;;;4988827;28;25076;-72
2023/09/08 10:58:38;;;;;;;11.88;9.15;;;;;;;;;;4987689;28;25089;-71
2023/09/08 11:01:04;;;;;;;;;;;;;;;;;;4991451;28;25054;-72
2023/09/08 11:03:39;;;;;;;15.63;9.68;;;;;;;;;;4986893;28;25068;-72
2023/09/08 11:06:06;;;;;;;11.55;8.73;;;;;;;;;;4992031;28;25061;-71
2023/09/08 11:08:33;;;;;;;16.45;9.98;;;;;;;;;;4994331;28;25051;-72
2023/09/08 11:11:02;;;;;;;15.32;10.75;;;;;;;;;;4992619;28;25066;-73
2023/09/08 11:13:29;;;;;;;11.73;9.43;;;;;;;;;;4994135;28;25119;-73
2023/09/08 11:15:55;;;;;;;15.07;9.85;;;;;;;;;;4998890;28;25072;-71
2023/09/08 11:18:27;;;;;;;10.80;8.13;;;;;;;;;;4996608;28;25078;-70
2023/09/08 11:20:53;;;;;;;15.00;9.10;;;;;;;;;;4996755;28;25072;-72
2023/09/08 11:23:20;;;;;;;11.05;8.52;;;;;;;;;;5003248;28;25100;-73
2023/09/08 11:25:47;;;;;;;10.77;7.50;;;;;;;;;;5005451;28;25106;-72
2023/09/08 11:28:13;;;;;;;12.15;9.13;;;;;;;;;;4998201;28;25089;-73
2023/09/08 11:30:40;;;;;;;9.65;7.57;;;;;;;;;;4997380;28;25060;-73
2023/09/08 11:33:14;;;;;;;8.85;7.25;;;;;;;;;;4984600;28;25076;-70
2023/09/08 11:35:40;;;;;;;9.63;8.07;;;;;;;;;;4982732;28;25158;-74
2023/09/08 11:38:06;;;;;;;11.63;7.95;;;;;;;;;;4991221;28;25118;-73
2023/09/08 11:40:34;;;;;;;10.40;7.20;;;;;;;;;;4989844;28;25075;-71
2023/09/08 11:43:00;;;;;;;11.35;6.93;;;;;;;;;;4985972;28;25059;-71
2023/09/08 11:45:27;;;;;;;11.60;6.63;;;;;;;;;;4982929;28;25047;-74
2023/09/08 11:47:53;;;;;;;11.75;6.65;;;;;;;;;;4985364;28;25076;-72
2023/09/08 11:50:20;;;;;;;10.70;7.45;;;;;;;;;;4987046;28;25056;-75
2023/09/08 11:52:46;;;;;;;12.30;6.63;;;;;;;;;;4988190;28;25090;-77
2023/09/08 11:55:13;;;;;;;7.60;6.28;;;;;;;;;;4990133;28;25076;-73
2023/09/08 11:57:39;;;;;;;9.07;7.00;;;;;;;;;;4992058;28;25068;-72
2023/09/08 12:00:06;;;;;;;9.68;7.15;;;;;;;;;;4986264;28;25056;-72
2023/09/08 12:02:38;;;;;;;7.05;5.80;;;;;;;;;;4989125;28;25072;-72
2023/09/08 12:05:04;;;;;;;11.57;7.50;;;;;;;;;;4985923;28;25073;-72
2023/09/08 12:07:30;;;;;;;6.22;5.63;;;;;;;;;;4988616;28;25103;-72
2023/09/08 12:09:58;;;;;;;6.88;6.28;;;;;;;;;;4984815;28;25078;-72
2023/09/08 12:12:26;;;;;;;10.55;6.18;;;;;;;;;;4983592;28;25049;-71
2023/09/08 12:14:52;;;;;;;8.73;6.60;;;;;;;;;;4982375;28;25065;-72
2023/09/08 12:17:18;;;;;;;9.20;6.57;;;;;;;;;;4989697;28;25055;-71
2023/09/08 12:19:44;;;;;;;12.27;6.47;;;;;;;;;;4985694;28;25074;-73
2023/09/08 12:22:12;;;;;;;10.93;6.68;;;;;;;;;;4983664;28;25059;-71
2023/09/08 12:25:01;;;;;;;11.25;7.55;;;;;;;;;;4980136;28;25077;-72
2023/09/08 12:27:27;;;;;;;10.15;6.68;;;;;;;;;;4980847;28;25070;-72
2023/09/08 12:29:54;;;;;;;11.07;7.35;;;;;;;;;;4987068;28;25065;-72
2023/09/08 12:32:20;;;;;;;9.50;6.75;;;;;;;;;;4982615;28;25080;-73
2023/09/08 12:34:46;;;;;;;10.77;8.32;;;;;;;;;;4985491;28;25089;-73
2023/09/08 12:37:12;;;;;;;11.27;7.00;;;;;;;;;;4988525;28;25082;-74
2023/09/08 12:39:39;;;;;;;9.98;7.30;;;;;;;;;;4988425;28;25075;-72
2023/09/08 12:42:05;;;;;;;9.25;8.07;;;;;;;;;;4984931;28;25073;-72
2023/09/08 12:44:31;;;;;;;18.35;6.47;;;;;;;;;;4987113;28;25093;-72
2023/09/08 12:46:57;;;;;;;10.35;7.05;;;;;;;;;;4994265;28;25161;-73
2023/09/08 12:49:23;;;;;;;12.48;9.48;;;;;;;;;;4986044;28;25071;-74
2023/09/08 12:51:49;;;;;;;16.65;8.23;;;;;;;;;;4996229;28;25170;-73
2023/09/08 12:54:15;;;;;;;9.77;7.68;;;;;;;;;;5005575;28;25107;-75
2023/09/08 12:56:41;;;;;;;11.38;8.02;;;;;;;;;;5004322;28;25107;-72
2023/09/08 12:59:06;;;;;;;9.85;7.13;;;;;;;;;;4995318;28;25148;-72
2023/09/08 13:01:32;;;;;;;12.60;8.00;;;;;;;;;;4990307;28;25162;-74
2023/09/08 13:03:58;;;;;;;10.30;6.78;;;;;;;;;;4989665;28;25096;-71
2023/09/08 13:06:24;;;;;;;8.15;7.30;;;;;;;;;;5005148;28;25057;-70
2023/09/08 13:08:50;;;;;;;11.07;8.70;;;;;;;;;;5000821;28;25064;-72
2023/09/08 13:11:16;;;;;;;13.18;7.20;;;;;;;;;;5001476;28;25110;-72
2023/09/08 13:13:42;;;;;;;12.05;7.35;;;;;;;;;;4991859;28;25145;-71
2023/09/08 13:16:08;;;;;;;14.15;6.70;;;;;;;;;;4996626;28;25060;-72
2023/09/08 13:18:38;;;;;;;10.10;7.63;;;;;;;;;;4985204;28;25044;-73
2023/09/08 13:21:04;;;;;;;12.25;7.82;;;;;;;;;;4996062;28;25053;-71
2023/09/08 13:23:30;;;;;;;9.05;7.40;;;;;;;;;;4988226;28;25089;-71
2023/09/08 13:25:56;;;;;;;16.02;7.80;;;;;;;;;;4987711;28;25085;-72
2023/09/08 13:28:21;;;;;;;10.15;6.50;;;;;;;;;;4987086;28;25086;-72
2023/09/08 13:30:47;;;;;;;8.73;6.57;;;;;;;;;;5008112;28;25069;-73
2023/09/08 13:33:13;;;;;;;6.65;6.05;;;;;;;;;;4983604;28;25083;-71
2023/09/08 13:35:39;;;;;;;9.95;5.32;;;;;;;;;;4978511;28;25076;-72
2023/09/08 13:38:06;;;;;;;9.68;4.68;;;;;;;;;;4980769;28;25059;-73
2023/09/08 13:40:32;;;;;;;8.20;4.80;;;;;;;;;;4983814;28;25141;-72
2023/09/08 13:42:58;;;;;;;11.70;4.45;;;;;;;;;;4991206;28;25058;-72
2023/09/08 13:45:24;;;;;;;8.32;4.30;;;;;;;;;;4988532;28;25051;-72
2023/09/08 13:47:50;;;;;;;7.53;4.43;;;;;;;;;;4989211;28;25088;-72
2023/09/08 13:50:16;;;;;;;8.68;4.20;;;;;;;;;;4986567;28;25067;-70
2023/09/08 13:52:43;;;;;;;6.60;4.20;;;;;;;;;;4988144;28;25096;-73
2023/09/08 13:55:10;;;;;;;8.93;4.10;;;;;;;;;;4984507;28;25118;-73
2023/09/08 13:57:36;;;;;;;6.40;4.53;;;;;;;;;;4990269;28;25049;-72
2023/09/08 14:00:02;;;;;;;8.88;3.97;;;;;;;;;;4994875;28;25055;-72
2023/09/08 14:02:28;;;;;;;6.75;4.13;;;;;;;;;;4991389;28;25085;-71
2023/09/08 14:04:54;;;;;;;8.05;4.43;;;;;;;;;;4982118;28;25095;-71
2023/09/08 14:07:20;;;;;;;5.72;3.63;;;;;;;;;;4988995;28;25058;-71
2023/09/08 14:09:46;;;;;;;5.45;3.80;;;;;;;;;;4991382;28;25142;-74
2023/09/08 14:12:12;;;;;;;6.47;3.70;;;;;;;;;;4993862;28;25098;-73
2023/09/08 14:14:38;;;;;;;8.63;3.75;;;;;;;;;;4988985;28;25150;-73
2023/09/08 14:17:04;;;;;;;9.30;4.00;;;;;;;;;;4988957;28;25094;-70
2023/09/08 14:19:30;;;;;;;8.85;4.03;;;;;;;;;;4985478;28;25050;-72